sensor_id;sensor_type;location;lat;lon;timestamp;P1;durP1;ratioP1;P2;durP2;ratioP2
10717;SDS011;13513;42.700;23.124;2023-09-30T00:01:26;10.78;;;4.30;;
10717;SDS011;13513;42.700;23.124;2023-09-30T00:03:54;9.65;;;4.50;;
10717;SDS011;13513;42.700;23.124;2023-09-30T00:06:22;9.60;;;4.45;;
10717;SDS011;13513;42.700;23.124;2023-09-30T00:08:49;12.13;;;4.92;;
10717;SDS011;13513;42.700;23.124;2023-09-30T00:11:17;14.23;;;4.80;;
10717;SDS011;13513;42.700;23.124;2023-09-30T00:13:44;14.53;;;4.83;;
10717;SDS011;13513;42.700;23.124;2023-09-30T00:16:12;9.40;;;4.67;;
10717;SDS011;13513;42.700;23.124;2023-09-30T00:18:39;9.53;;;4.37;;
10717;SDS011;13513;42.700;23.124;2023-09-30T00:21:07;12.07;;;4.90;;
10717;SDS011;13513;42.700;23.124;2023-09-30T00:23:34;7.12;;;4.58;;
10717;SDS011;13513;42.700;23.124;2023-09-30T00:26:02;8.18;;;3.98;;
10717;SDS011;13513;42.700;23.124;2023-09-30T00:28:30;11.35;;;4.50;;
10717;SDS011;13513;42.700;23.124;2023-09-30T00:30:58;12.55;;;4.42;;
10717;SDS011;13513;42.700;23.124;2023-09-30T00:33:25;11.73;;;4.40;;
10717;SDS011;13513;42.700;23.124;2023-09-30T00:35:53;12.00;;;4.60;;
10717;SDS011;13513;42.700;23.124;2023-09-30T00:38:20;8.28;;;4.15;;
10717;SDS011;13513;42.700;23.124;2023-09-30T00:40:49;8.85;;;4.58;;
10717;SDS011;13513;42.700;23.124;2023-09-30T00:43:20;7.60;;;3.72;;
10717;SDS011;13513;42.700;23.124;2023-09-30T00:46:01;12.85;;;3.90;;
10717;SDS011;13513;42.700;23.124;2023-09-30T00:48:31;11.97;;;4.78;;
10717;SDS011;13513;42.700;23.124;2023-09-30T00:51:00;7.50;;;4.05;;
10717;SDS011;13513;42.700;23.124;2023-09-30T00:53:29;11.20;;;4.33;;
10717;SDS011;13513;42.700;23.124;2023-09-30T00:55:57;6.58;;;4.37;;
10717;SDS011;13513;42.700;23.124;2023-09-30T00:58:26;10.13;;;4.12;;
10717;SDS011;13513;42.700;23.124;2023-09-30T01:00:56;6.97;;;4.50;;
10717;SDS011;13513;42.700;23.124;2023-09-30T01:03:25;14.43;;;4.40;;
10717;SDS011;13513;42.700;23.124;2023-09-30T01:05:53;16.90;;;4.10;;
10717;SDS011;13513;42.700;23.124;2023-09-30T01:08:21;10.93;;;4.17;;
10717;SDS011;13513;42.700;23.124;2023-09-30T01:10:49;7.05;;;4.65;;
10717;SDS011;13513;42.700;23.124;2023-09-30T01:13:16;10.08;;;4.53;;
10717;SDS011;13513;42.700;23.124;2023-09-30T01:15:44;5.33;;;4.50;;
10717;SDS011;13513;42.700;23.124;2023-09-30T01:18:12;11.15;;;4.53;;
10717;SDS011;13513;42.700;23.124;2023-09-30T01:20:40;4.67;;;3.95;;
10717;SDS011;13513;42.700;23.124;2023-09-30T01:23:08;14.90;;;4.28;;
10717;SDS011;13513;42.700;23.124;2023-09-30T01:25:37;12.95;;;4.17;;
10717;SDS011;13513;42.700;23.124;2023-09-30T01:28:07;10.30;;;4.08;;
10717;SDS011;13513;42.700;23.124;2023-09-30T01:30:35;12.05;;;4.40;;
10717;SDS011;13513;42.700;23.124;2023-09-30T01:33:03;6.03;;;3.90;;
10717;SDS011;13513;42.700;23.124;2023-09-30T01:35:33;7.47;;;4.08;;
10717;SDS011;13513;42.700;23.124;2023-09-30T01:38:00;10.32;;;4.17;;
10717;SDS011;13513;42.700;23.124;2023-09-30T01:40:28;10.40;;;3.87;;
10717;SDS011;13513;42.700;23.124;2023-09-30T01:42:56;11.20;;;4.33;;
10717;SDS011;13513;42.700;23.124;2023-09-30T01:45:23;6.90;;;3.90;;
10717;SDS011;13513;42.700;23.124;2023-09-30T01:47:51;6.62;;;4.15;;
10717;SDS011;13513;42.700;23.124;2023-09-30T01:50:18;8.30;;;4.15;;
10717;SDS011;13513;42.700;23.124;2023-09-30T01:52:45;7.90;;;4.05;;
10717;SDS011;13513;42.700;23.124;2023-09-30T01:55:13;7.78;;;4.20;;
10717;SDS011;13513;42.700;23.124;2023-09-30T01:57:40;6.17;;;3.83;;
10717;SDS011;13513;42.700;23.124;2023-09-30T02:00:08;7.17;;;4.05;;
10717;SDS011;13513;42.700;23.124;2023-09-30T02:02:35;6.33;;;3.95;;
10717;SDS011;13513;42.700;23.124;2023-09-30T02:05:03;9.20;;;4.42;;
10717;SDS011;13513;42.700;23.124;2023-09-30T02:07:32;11.20;;;4.10;;
10717;SDS011;13513;42.700;23.124;2023-09-30T02:10:00;12.73;;;4.50;;
10717;SDS011;13513;42.700;23.124;2023-09-30T02:12:29;7.58;;;3.70;;
10717;SDS011;13513;42.700;23.124;2023-09-30T02:14:58;7.53;;;3.72;;
10717;SDS011;13513;42.700;23.124;2023-09-30T02:17:25;12.98;;;4.22;;
10717;SDS011;13513;42.700;23.124;2023-09-30T02:19:53;6.65;;;3.83;;
10717;SDS011;13513;42.700;23.124;2023-09-30T02:22:20;6.22;;;3.95;;
10717;SDS011;13513;42.700;23.124;2023-09-30T02:24:49;8.55;;;3.87;;
10717;SDS011;13513;42.700;23.124;2023-09-30T02:27:16;7.60;;;3.77;;
10717;SDS011;13513;42.700;23.124;2023-09-30T02:29:44;10.93;;;3.65;;
10717;SDS011;13513;42.700;23.124;2023-09-30T02:32:11;9.05;;;4.12;;
10717;SDS011;13513;42.700;23.124;2023-09-30T02:34:39;7.83;;;3.72;;
10717;SDS011;13513;42.700;23.124;2023-09-30T02:37:08;6.20;;;3.77;;
10717;SDS011;13513;42.700;23.124;2023-09-30T02:39:36;8.10;;;3.52;;
10717;SDS011;13513;42.700;23.124;2023-09-30T02:42:03;5.20;;;3.87;;
10717;SDS011;13513;42.700;23.124;2023-09-30T02:44:31;5.35;;;3.72;;
10717;SDS011;13513;42.700;23.124;2023-09-30T02:46:58;9.93;;;3.72;;
10717;SDS011;13513;42.700;23.124;2023-09-30T02:49:26;7.53;;;3.55;;
10717;SDS011;13513;42.700;23.124;2023-09-30T02:51:53;7.65;;;3.80;;
10717;SDS011;13513;42.700;23.124;2023-09-30T02:54:21;10.55;;;3.55;;
10717;SDS011;13513;42.700;23.124;2023-09-30T02:56:48;9.18;;;3.72;;
10717;SDS011;13513;42.700;23.124;2023-09-30T02:59:15;6.05;;;3.75;;
10717;SDS011;13513;42.700;23.124;2023-09-30T03:01:44;8.98;;;3.83;;
10717;SDS011;13513;42.700;23.124;2023-09-30T03:04:12;8.13;;;4.10;;
10717;SDS011;13513;42.700;23.124;2023-09-30T03:06:40;9.73;;;4.10;;
10717;SDS011;13513;42.700;23.124;2023-09-30T03:09:08;9.60;;;3.77;;
10717;SDS011;13513;42.700;23.124;2023-09-30T03:11:37;5.92;;;4.10;;
10717;SDS011;13513;42.700;23.124;2023-09-30T03:14:04;8.80;;;3.95;;
10717;SDS011;13513;42.700;23.124;2023-09-30T03:16:33;10.20;;;3.77;;
10717;SDS011;13513;42.700;23.124;2023-09-30T03:19:02;5.45;;;3.60;;
10717;SDS011;13513;42.700;23.124;2023-09-30T03:21:31;5.15;;;3.85;;
10717;SDS011;13513;42.700;23.124;2023-09-30T03:23:58;10.00;;;4.22;;
10717;SDS011;13513;42.700;23.124;2023-09-30T03:26:28;7.33;;;4.00;;
10717;SDS011;13513;42.700;23.124;2023-09-30T03:28:55;7.90;;;4.00;;
10717;SDS011;13513;42.700;23.124;2023-09-30T03:31:23;6.35;;;4.00;;
10717;SDS011;13513;42.700;23.124;2023-09-30T03:33:50;10.35;;;5.00;;
10717;SDS011;13513;42.700;23.124;2023-09-30T03:36:21;10.18;;;4.55;;
10717;SDS011;13513;42.700;23.124;2023-09-30T03:38:53;8.20;;;4.20;;
10717;SDS011;13513;42.700;23.124;2023-09-30T03:41:21;10.45;;;4.45;;
10717;SDS011;13513;42.700;23.124;2023-09-30T03:43:48;9.80;;;3.98;;
10717;SDS011;13513;42.700;23.124;2023-09-30T03:46:16;3.95;;;3.25;;
10717;SDS011;13513;42.700;23.124;2023-09-30T03:48:44;7.37;;;3.90;;
10717;SDS011;13513;42.700;23.124;2023-09-30T03:51:12;5.40;;;3.70;;
10717;SDS011;13513;42.700;23.124;2023-09-30T03:53:41;7.47;;;3.60;;
10717;SDS011;13513;42.700;23.124;2023-09-30T03:56:08;6.83;;;3.27;;
10717;SDS011;13513;42.700;23.124;2023-09-30T03:58:38;5.03;;;3.85;;
10717;SDS011;13513;42.700;23.124;2023-09-30T04:01:10;9.80;;;3.70;;
10717;SDS011;13513;42.700;23.124;2023-09-30T04:03:39;9.88;;;3.60;;
10717;SDS011;13513;42.700;23.124;2023-09-30T04:06:09;5.75;;;3.52;;
10717;SDS011;13513;42.700;23.124;2023-09-30T04:08:36;10.45;;;3.30;;
10717;SDS011;13513;42.700;23.124;2023-09-30T04:11:04;4.95;;;3.77;;
10717;SDS011;13513;42.700;23.124;2023-09-30T04:13:31;6.58;;;3.72;;
10717;SDS011;13513;42.700;23.124;2023-09-30T04:15:59;9.10;;;3.95;;
10717;SDS011;13513;42.700;23.124;2023-09-30T04:18:26;7.97;;;3.80;;
10717;SDS011;13513;42.700;23.124;2023-09-30T04:20:54;5.72;;;3.77;;
10717;SDS011;13513;42.700;23.124;2023-09-30T04:23:21;8.80;;;3.65;;
10717;SDS011;13513;42.700;23.124;2023-09-30T04:25:49;6.47;;;3.52;;
10717;SDS011;13513;42.700;23.124;2023-09-30T04:28:16;7.37;;;3.83;;
10717;SDS011;13513;42.700;23.124;2023-09-30T04:30:46;10.65;;;3.98;;
10717;SDS011;13513;42.700;23.124;2023-09-30T04:33:15;5.90;;;3.77;;
10717;SDS011;13513;42.700;23.124;2023-09-30T04:35:48;6.25;;;3.77;;
10717;SDS011;13513;42.700;23.124;2023-09-30T04:38:15;8.25;;;3.95;;
10717;SDS011;13513;42.700;23.124;2023-09-30T04:40:44;4.08;;;3.67;;
10717;SDS011;13513;42.700;23.124;2023-09-30T04:43:13;7.92;;;4.00;;
10717;SDS011;13513;42.700;23.124;2023-09-30T04:45:40;5.92;;;3.52;;
10717;SDS011;13513;42.700;23.124;2023-09-30T04:48:08;6.83;;;3.55;;
10717;SDS011;13513;42.700;23.124;2023-09-30T04:50:35;10.25;;;4.12;;
10717;SDS011;13513;42.700;23.124;2023-09-30T04:53:03;7.87;;;3.70;;
10717;SDS011;13513;42.700;23.124;2023-09-30T04:55:31;7.50;;;3.92;;
10717;SDS011;13513;42.700;23.124;2023-09-30T04:57:58;12.40;;;3.60;;
10717;SDS011;13513;42.700;23.124;2023-09-30T05:00:26;5.80;;;3.37;;
10717;SDS011;13513;42.700;23.124;2023-09-30T05:02:55;12.37;;;3.80;;
10717;SDS011;13513;42.700;23.124;2023-09-30T05:05:24;39.25;;;4.65;;
10717;SDS011;13513;42.700;23.124;2023-09-30T05:07:52;12.75;;;3.70;;
10717;SDS011;13513;42.700;23.124;2023-09-30T05:10:19;9.78;;;3.75;;
10717;SDS011;13513;42.700;23.124;2023-09-30T05:12:46;14.28;;;3.50;;
10717;SDS011;13513;42.700;23.124;2023-09-30T05:15:17;11.73;;;3.55;;
10717;SDS011;13513;42.700;23.124;2023-09-30T05:17:45;12.95;;;3.90;;
10717;SDS011;13513;42.700;23.124;2023-09-30T05:20:13;9.63;;;3.62;;
10717;SDS011;13513;42.700;23.124;2023-09-30T05:22:43;9.95;;;3.65;;
10717;SDS011;13513;42.700;23.124;2023-09-30T05:25:16;4.75;;;3.83;;
10717;SDS011;13513;42.700;23.124;2023-09-30T05:27:44;12.90;;;3.70;;
10717;SDS011;13513;42.700;23.124;2023-09-30T05:30:13;6.42;;;3.42;;
10717;SDS011;13513;42.700;23.124;2023-09-30T05:32:41;8.18;;;3.50;;
10717;SDS011;13513;42.700;23.124;2023-09-30T05:35:09;7.90;;;3.47;;
10717;SDS011;13513;42.700;23.124;2023-09-30T05:37:39;16.57;;;4.20;;
10717;SDS011;13513;42.700;23.124;2023-09-30T05:40:08;7.47;;;3.35;;
10717;SDS011;13513;42.700;23.124;2023-09-30T05:42:37;5.42;;;3.30;;
10717;SDS011;13513;42.700;23.124;2023-09-30T05:45:05;15.53;;;4.10;;
10717;SDS011;13513;42.700;23.124;2023-09-30T05:47:34;6.42;;;3.42;;
10717;SDS011;13513;42.700;23.124;2023-09-30T05:50:03;8.35;;;3.62;;
10717;SDS011;13513;42.700;23.124;2023-09-30T05:52:32;10.80;;;3.20;;
10717;SDS011;13513;42.700;23.124;2023-09-30T05:55:00;8.68;;;3.95;;
10717;SDS011;13513;42.700;23.124;2023-09-30T05:57:28;9.30;;;3.60;;
10717;SDS011;13513;42.700;23.124;2023-09-30T05:59:56;17.32;;;3.47;;
10717;SDS011;13513;42.700;23.124;2023-09-30T06:02:23;12.28;;;4.03;;
10717;SDS011;13513;42.700;23.124;2023-09-30T06:04:51;10.80;;;3.20;;
10717;SDS011;13513;42.700;23.124;2023-09-30T06:07:19;9.60;;;3.72;;
10717;SDS011;13513;42.700;23.124;2023-09-30T06:09:46;5.78;;;3.27;;
10717;SDS011;13513;42.700;23.124;2023-09-30T06:12:15;10.23;;;3.58;;
10717;SDS011;13513;42.700;23.124;2023-09-30T06:14:42;10.50;;;3.20;;
10717;SDS011;13513;42.700;23.124;2023-09-30T06:17:10;10.00;;;3.45;;
10717;SDS011;13513;42.700;23.124;2023-09-30T06:19:38;7.12;;;3.35;;
10717;SDS011;13513;42.700;23.124;2023-09-30T06:22:05;7.55;;;3.62;;
10717;SDS011;13513;42.700;23.124;2023-09-30T06:24:33;9.60;;;3.80;;
10717;SDS011;13513;42.700;23.124;2023-09-30T06:27:00;12.15;;;3.20;;
10717;SDS011;13513;42.700;23.124;2023-09-30T06:29:28;12.68;;;3.20;;
10717;SDS011;13513;42.700;23.124;2023-09-30T06:31:56;11.18;;;3.42;;
10717;SDS011;13513;42.700;23.124;2023-09-30T06:34:23;6.53;;;3.37;;
10717;SDS011;13513;42.700;23.124;2023-09-30T06:36:51;9.68;;;3.75;;
10717;SDS011;13513;42.700;23.124;2023-09-30T06:39:19;5.37;;;3.35;;
10717;SDS011;13513;42.700;23.124;2023-09-30T06:41:46;10.80;;;3.42;;
10717;SDS011;13513;42.700;23.124;2023-09-30T06:44:14;6.17;;;3.65;;
10717;SDS011;13513;42.700;23.124;2023-09-30T06:46:42;12.40;;;3.58;;
10717;SDS011;13513;42.700;23.124;2023-09-30T06:49:09;6.20;;;3.27;;
10717;SDS011;13513;42.700;23.124;2023-09-30T06:51:37;4.47;;;3.17;;
10717;SDS011;13513;42.700;23.124;2023-09-30T06:54:05;11.73;;;3.27;;
10717;SDS011;13513;42.700;23.124;2023-09-30T06:56:35;13.40;;;3.30;;
10717;SDS011;13513;42.700;23.124;2023-09-30T06:59:02;8.80;;;3.30;;
10717;SDS011;13513;42.700;23.124;2023-09-30T07:01:31;7.60;;;3.37;;
10717;SDS011;13513;42.700;23.124;2023-09-30T07:03:59;19.82;;;3.08;;
10717;SDS011;13513;42.700;23.124;2023-09-30T07:06:27;13.85;;;3.22;;
10717;SDS011;13513;42.700;23.124;2023-09-30T07:08:54;4.90;;;3.25;;
10717;SDS011;13513;42.700;23.124;2023-09-30T07:11:28;6.03;;;3.47;;
10717;SDS011;13513;42.700;23.124;2023-09-30T07:13:57;8.08;;;3.33;;
10717;SDS011;13513;42.700;23.124;2023-09-30T07:16:26;6.05;;;2.75;;
10717;SDS011;13513;42.700;23.124;2023-09-30T07:18:53;8.43;;;3.33;;
10717;SDS011;13513;42.700;23.124;2023-09-30T07:21:21;7.15;;;3.50;;
10717;SDS011;13513;42.700;23.124;2023-09-30T07:23:48;8.33;;;3.20;;
10717;SDS011;13513;42.700;23.124;2023-09-30T07:26:15;9.13;;;3.12;;
10717;SDS011;13513;42.700;23.124;2023-09-30T07:28:43;11.65;;;3.20;;
10717;SDS011;13513;42.700;23.124;2023-09-30T07:31:10;11.63;;;3.00;;
10717;SDS011;13513;42.700;23.124;2023-09-30T07:33:39;11.57;;;3.45;;
10717;SDS011;13513;42.700;23.124;2023-09-30T07:36:06;10.65;;;3.40;;
10717;SDS011;13513;42.700;23.124;2023-09-30T07:38:34;7.37;;;3.17;;
10717;SDS011;13513;42.700;23.124;2023-09-30T07:41:01;12.55;;;3.12;;
10717;SDS011;13513;42.700;23.124;2023-09-30T07:43:30;11.43;;;3.40;;
10717;SDS011;13513;42.700;23.124;2023-09-30T07:45:58;9.60;;;3.22;;
10717;SDS011;13513;42.700;23.124;2023-09-30T07:48:27;13.98;;;3.87;;
10717;SDS011;13513;42.700;23.124;2023-09-30T07:50:55;8.20;;;3.30;;
10717;SDS011;13513;42.700;23.124;2023-09-30T07:53:22;8.33;;;3.08;;
10717;SDS011;13513;42.700;23.124;2023-09-30T07:55:50;6.62;;;3.22;;
10717;SDS011;13513;42.700;23.124;2023-09-30T07:58:18;9.25;;;3.30;;
10717;SDS011;13513;42.700;23.124;2023-09-30T08:00:45;11.68;;;3.47;;
10717;SDS011;13513;42.700;23.124;2023-09-30T08:03:13;12.25;;;3.50;;
10717;SDS011;13513;42.700;23.124;2023-09-30T08:05:42;13.72;;;3.70;;
10717;SDS011;13513;42.700;23.124;2023-09-30T08:08:09;12.65;;;4.00;;
10717;SDS011;13513;42.700;23.124;2023-09-30T08:10:37;11.03;;;3.90;;
10717;SDS011;13513;42.700;23.124;2023-09-30T08:13:04;11.10;;;3.75;;
10717;SDS011;13513;42.700;23.124;2023-09-30T08:15:32;14.73;;;4.28;;
10717;SDS011;13513;42.700;23.124;2023-09-30T08:17:59;7.50;;;3.75;;
10717;SDS011;13513;42.700;23.124;2023-09-30T08:20:28;13.68;;;4.65;;
10717;SDS011;13513;42.700;23.124;2023-09-30T08:22:56;17.77;;;6.90;;
10717;SDS011;13513;42.700;23.124;2023-09-30T08:25:24;21.20;;;5.83;;
10717;SDS011;13513;42.700;23.124;2023-09-30T08:27:51;12.63;;;6.35;;
10717;SDS011;13513;42.700;23.124;2023-09-30T08:30:20;11.95;;;6.85;;
10717;SDS011;13513;42.700;23.124;2023-09-30T08:32:47;11.70;;;6.72;;
10717;SDS011;13513;42.700;23.124;2023-09-30T08:35:15;7.95;;;5.20;;
10717;SDS011;13513;42.700;23.124;2023-09-30T08:37:43;7.47;;;5.17;;
10717;SDS011;13513;42.700;23.124;2023-09-30T08:40:10;9.83;;;6.87;;
10717;SDS011;13513;42.700;23.124;2023-09-30T08:42:38;15.53;;;7.20;;
10717;SDS011;13513;42.700;23.124;2023-09-30T08:45:08;13.80;;;7.65;;
10717;SDS011;13513;42.700;23.124;2023-09-30T08:47:37;14.00;;;7.53;;
10717;SDS011;13513;42.700;23.124;2023-09-30T08:50:06;22.13;;;9.50;;
10717;SDS011;13513;42.700;23.124;2023-09-30T08:52:44;12.90;;;6.58;;
10717;SDS011;13513;42.700;23.124;2023-09-30T08:55:09;12.20;;;5.97;;
10717;SDS011;13513;42.700;23.124;2023-09-30T08:57:38;11.85;;;6.53;;
10717;SDS011;13513;42.700;23.124;2023-09-30T09:00:14;10.28;;;6.40;;
10717;SDS011;13513;42.700;23.124;2023-09-30T09:02:40;18.27;;;7.55;;
10717;SDS011;13513;42.700;23.124;2023-09-30T09:05:08;16.48;;;6.08;;
10717;SDS011;13513;42.700;23.124;2023-09-30T09:07:36;9.38;;;5.67;;
10717;SDS011;13513;42.700;23.124;2023-09-30T09:10:12;8.35;;;5.70;;
10717;SDS011;13513;42.700;23.124;2023-09-30T09:12:39;14.55;;;6.08;;
10717;SDS011;13513;42.700;23.124;2023-09-30T09:15:07;9.73;;;5.37;;
10717;SDS011;13513;42.700;23.124;2023-09-30T09:17:40;12.33;;;5.92;;
10717;SDS011;13513;42.700;23.124;2023-09-30T09:20:09;7.70;;;5.35;;
10717;SDS011;13513;42.700;23.124;2023-09-30T09:22:43;8.18;;;5.45;;
10717;SDS011;13513;42.700;23.124;2023-09-30T09:25:11;12.47;;;5.37;;
10717;SDS011;13513;42.700;23.124;2023-09-30T09:27:38;7.97;;;4.83;;
10717;SDS011;13513;42.700;23.124;2023-09-30T09:30:19;11.00;;;5.00;;
10717;SDS011;13513;42.700;23.124;2023-09-30T09:33:03;9.95;;;4.90;;
10717;SDS011;13513;42.700;23.124;2023-09-30T09:35:34;7.50;;;4.80;;
10717;SDS011;13513;42.700;23.124;2023-09-30T09:38:02;9.23;;;4.70;;
10717;SDS011;13513;42.700;23.124;2023-09-30T09:40:38;9.65;;;4.37;;
10717;SDS011;13513;42.700;23.124;2023-09-30T09:43:06;8.38;;;4.17;;
10717;SDS011;13513;42.700;23.124;2023-09-30T09:45:35;11.03;;;4.45;;
10717;SDS011;13513;42.700;23.124;2023-09-30T09:48:03;9.13;;;4.62;;
10717;SDS011;13513;42.700;23.124;2023-09-30T09:50:32;7.67;;;4.65;;
10717;SDS011;13513;42.700;23.124;2023-09-30T09:53:04;9.75;;;4.17;;
10717;SDS011;13513;42.700;23.124;2023-09-30T09:55:32;9.65;;;5.03;;
10717;SDS011;13513;42.700;23.124;2023-09-30T09:58:00;11.22;;;4.72;;
10717;SDS011;13513;42.700;23.124;2023-09-30T10:00:30;11.25;;;4.83;;
10717;SDS011;13513;42.700;23.124;2023-09-30T10:03:00;12.45;;;4.10;;
10717;SDS011;13513;42.700;23.124;2023-09-30T10:05:28;14.55;;;4.75;;
10717;SDS011;13513;42.700;23.124;2023-09-30T10:08:03;7.17;;;3.83;;
10717;SDS011;13513;42.700;23.124;2023-09-30T10:10:35;8.08;;;4.22;;
10717;SDS011;13513;42.700;23.124;2023-09-30T10:13:04;13.68;;;4.70;;
10717;SDS011;13513;42.700;23.124;2023-09-30T10:18:08;8.20;;;4.12;;
10717;SDS011;13513;42.700;23.124;2023-09-30T10:20:37;12.45;;;4.20;;
10717;SDS011;13513;42.700;23.124;2023-09-30T10:26:16;7.97;;;3.75;;
10717;SDS011;13513;42.700;23.124;2023-09-30T10:28:38;9.98;;;4.55;;
10717;SDS011;13513;42.700;23.124;2023-09-30T10:36:39;4.90;;;3.42;;
10717;SDS011;13513;42.700;23.124;2023-09-30T10:39:05;11.70;;;3.60;;
10717;SDS011;13513;42.700;23.124;2023-09-30T10:44:32;5.50;;;3.67;;
10717;SDS011;13513;42.700;23.124;2023-09-30T10:46:58;4.97;;;3.20;;
10717;SDS011;13513;42.700;23.124;2023-09-30T10:51:58;5.35;;;3.55;;
10717;SDS011;13513;42.700;23.124;2023-09-30T10:54:28;4.55;;;3.25;;
10717;SDS011;13513;42.700;23.124;2023-09-30T10:56:57;9.05;;;3.27;;
10717;SDS011;13513;42.700;23.124;2023-09-30T10:59:26;8.83;;;3.95;;
10717;SDS011;13513;42.700;23.124;2023-09-30T11:01:59;6.50;;;3.70;;
10717;SDS011;13513;42.700;23.124;2023-09-30T11:04:27;7.30;;;3.62;;
10717;SDS011;13513;42.700;23.124;2023-09-30T11:06:55;7.47;;;3.40;;
10717;SDS011;13513;42.700;23.124;2023-09-30T11:09:22;5.53;;;3.42;;
10717;SDS011;13513;42.700;23.124;2023-09-30T11:11:51;7.40;;;3.47;;
10717;SDS011;13513;42.700;23.124;2023-09-30T11:14:30;10.30;;;3.33;;
10717;SDS011;13513;42.700;23.124;2023-09-30T11:16:59;7.58;;;3.52;;
10717;SDS011;13513;42.700;23.124;2023-09-30T11:19:35;6.03;;;2.90;;
10717;SDS011;13513;42.700;23.124;2023-09-30T11:22:04;6.12;;;3.20;;
10717;SDS011;13513;42.700;23.124;2023-09-30T11:24:35;9.48;;;3.10;;
10717;SDS011;13513;42.700;23.124;2023-09-30T11:27:03;5.10;;;3.40;;
10717;SDS011;13513;42.700;23.124;2023-09-30T11:29:31;9.35;;;3.25;;
10717;SDS011;13513;42.700;23.124;2023-09-30T11:31:58;5.10;;;3.40;;
10717;SDS011;13513;42.700;23.124;2023-09-30T11:34:33;6.70;;;3.20;;
10717;SDS011;13513;42.700;23.124;2023-09-30T11:37:04;14.20;;;3.22;;
10717;SDS011;13513;42.700;23.124;2023-09-30T11:39:32;6.67;;;3.25;;
10717;SDS011;13513;42.700;23.124;2023-09-30T11:41:59;7.03;;;3.00;;
10717;SDS011;13513;42.700;23.124;2023-09-30T11:44:27;6.08;;;3.33;;
10717;SDS011;13513;42.700;23.124;2023-09-30T11:46:57;6.00;;;3.05;;
10717;SDS011;13513;42.700;23.124;2023-09-30T11:52:01;7.42;;;3.12;;
10717;SDS011;13513;42.700;23.124;2023-09-30T11:54:33;13.95;;;3.30;;
10717;SDS011;13513;42.700;23.124;2023-09-30T11:57:07;9.93;;;3.10;;
10717;SDS011;13513;42.700;23.124;2023-09-30T11:59:39;6.83;;;3.33;;
10717;SDS011;13513;42.700;23.124;2023-09-30T12:02:10;7.47;;;3.15;;
10717;SDS011;13513;42.700;23.124;2023-09-30T12:04:40;10.23;;;3.35;;
10717;SDS011;13513;42.700;23.124;2023-09-30T12:07:08;6.75;;;4.50;;
10717;SDS011;13513;42.700;23.124;2023-09-30T12:09:36;4.65;;;3.12;;
10717;SDS011;13513;42.700;23.124;2023-09-30T12:12:06;5.53;;;3.08;;
10717;SDS011;13513;42.700;23.124;2023-09-30T12:14:34;10.63;;;3.22;;
10717;SDS011;13513;42.700;23.124;2023-09-30T12:17:02;7.55;;;3.05;;
10717;SDS011;13513;42.700;23.124;2023-09-30T12:19:29;14.40;;;3.27;;
10717;SDS011;13513;42.700;23.124;2023-09-30T12:21:57;10.75;;;3.85;;
10717;SDS011;13513;42.700;23.124;2023-09-30T12:24:25;12.10;;;3.30;;
10717;SDS011;13513;42.700;23.124;2023-09-30T12:26:52;10.28;;;3.52;;
10717;SDS011;13513;42.700;23.124;2023-09-30T12:29:21;9.38;;;2.98;;
10717;SDS011;13513;42.700;23.124;2023-09-30T12:31:50;8.13;;;3.20;;
10717;SDS011;13513;42.700;23.124;2023-09-30T12:34:18;5.00;;;2.90;;
10717;SDS011;13513;42.700;23.124;2023-09-30T12:36:47;6.58;;;3.42;;
10717;SDS011;13513;42.700;23.124;2023-09-30T12:39:15;5.53;;;3.10;;
10717;SDS011;13513;42.700;23.124;2023-09-30T12:41:42;5.80;;;3.20;;
10717;SDS011;13513;42.700;23.124;2023-09-30T12:44:11;4.45;;;3.10;;
10717;SDS011;13513;42.700;23.124;2023-09-30T12:46:38;6.03;;;2.95;;
10717;SDS011;13513;42.700;23.124;2023-09-30T12:49:06;9.58;;;3.05;;
10717;SDS011;13513;42.700;23.124;2023-09-30T12:51:34;3.85;;;2.75;;
10717;SDS011;13513;42.700;23.124;2023-09-30T12:54:02;6.50;;;3.00;;
10717;SDS011;13513;42.700;23.124;2023-09-30T12:56:30;5.20;;;3.40;;
10717;SDS011;13513;42.700;23.124;2023-09-30T12:58:58;9.70;;;3.17;;
10717;SDS011;13513;42.700;23.124;2023-09-30T13:01:26;6.60;;;3.58;;
10717;SDS011;13513;42.700;23.124;2023-09-30T13:03:54;4.45;;;3.08;;
10717;SDS011;13513;42.700;23.124;2023-09-30T13:06:21;5.95;;;3.60;;
10717;SDS011;13513;42.700;23.124;2023-09-30T13:08:49;5.65;;;3.37;;
10717;SDS011;13513;42.700;23.124;2023-09-30T13:11:16;5.62;;;3.10;;
10717;SDS011;13513;42.700;23.124;2023-09-30T13:13:44;11.10;;;3.33;;
10717;SDS011;13513;42.700;23.124;2023-09-30T13:16:11;4.67;;;3.58;;
10717;SDS011;13513;42.700;23.124;2023-09-30T13:18:38;10.03;;;3.62;;
10717;SDS011;13513;42.700;23.124;2023-09-30T13:21:06;9.10;;;3.50;;
10717;SDS011;13513;42.700;23.124;2023-09-30T13:23:34;8.18;;;3.72;;
10717;SDS011;13513;42.700;23.124;2023-09-30T13:26:02;10.93;;;3.40;;
10717;SDS011;13513;42.700;23.124;2023-09-30T13:28:29;8.20;;;3.60;;
10717;SDS011;13513;42.700;23.124;2023-09-30T13:30:56;6.92;;;2.98;;
10717;SDS011;13513;42.700;23.124;2023-09-30T13:33:24;10.78;;;3.72;;
10717;SDS011;13513;42.700;23.124;2023-09-30T13:35:52;7.45;;;3.50;;
10717;SDS011;13513;42.700;23.124;2023-09-30T13:38:21;10.08;;;4.00;;
10717;SDS011;13513;42.700;23.124;2023-09-30T13:40:49;6.80;;;3.30;;
10717;SDS011;13513;42.700;23.124;2023-09-30T13:43:17;4.85;;;3.42;;
10717;SDS011;13513;42.700;23.124;2023-09-30T13:45:44;9.28;;;3.37;;
10717;SDS011;13513;42.700;23.124;2023-09-30T13:48:12;5.15;;;3.02;;
10717;SDS011;13513;42.700;23.124;2023-09-30T13:50:39;6.87;;;3.62;;
10717;SDS011;13513;42.700;23.124;2023-09-30T13:53:07;7.15;;;3.65;;
10717;SDS011;13513;42.700;23.124;2023-09-30T13:55:37;5.70;;;3.45;;
10717;SDS011;13513;42.700;23.124;2023-09-30T13:58:06;8.43;;;4.17;;
10717;SDS011;13513;42.700;23.124;2023-09-30T14:00:34;7.00;;;3.70;;
10717;SDS011;13513;42.700;23.124;2023-09-30T14:03:02;10.20;;;4.00;;
10717;SDS011;13513;42.700;23.124;2023-09-30T14:05:30;7.67;;;3.50;;
10717;SDS011;13513;42.700;23.124;2023-09-30T14:07:58;7.95;;;3.90;;
10717;SDS011;13513;42.700;23.124;2023-09-30T14:10:27;8.25;;;3.77;;
10717;SDS011;13513;42.700;23.124;2023-09-30T14:12:55;6.42;;;3.20;;
10717;SDS011;13513;42.700;23.124;2023-09-30T14:15:23;7.60;;;3.45;;
10717;SDS011;13513;42.700;23.124;2023-09-30T14:17:52;15.08;;;4.22;;
10717;SDS011;13513;42.700;23.124;2023-09-30T14:20:21;11.38;;;4.10;;
10717;SDS011;13513;42.700;23.124;2023-09-30T14:22:48;13.95;;;4.22;;
10717;SDS011;13513;42.700;23.124;2023-09-30T14:25:17;9.20;;;3.83;;
10717;SDS011;13513;42.700;23.124;2023-09-30T14:27:45;10.43;;;3.80;;
10717;SDS011;13513;42.700;23.124;2023-09-30T14:30:12;4.70;;;3.62;;
10717;SDS011;13513;42.700;23.124;2023-09-30T14:32:40;7.05;;;3.92;;
10717;SDS011;13513;42.700;23.124;2023-09-30T14:35:08;10.50;;;4.15;;
10717;SDS011;13513;42.700;23.124;2023-09-30T14:37:36;8.55;;;3.50;;
10717;SDS011;13513;42.700;23.124;2023-09-30T14:40:03;8.20;;;4.12;;
10717;SDS011;13513;42.700;23.124;2023-09-30T14:42:33;8.58;;;3.72;;
10717;SDS011;13513;42.700;23.124;2023-09-30T14:45:00;11.90;;;4.10;;
10717;SDS011;13513;42.700;23.124;2023-09-30T14:47:27;6.20;;;3.92;;
10717;SDS011;13513;42.700;23.124;2023-09-30T14:49:55;4.87;;;3.30;;
10717;SDS011;13513;42.700;23.124;2023-09-30T14:52:22;10.30;;;4.42;;
10717;SDS011;13513;42.700;23.124;2023-09-30T14:54:50;6.92;;;4.30;;
10717;SDS011;13513;42.700;23.124;2023-09-30T14:57:18;12.40;;;3.85;;